createdAt,value
2017-02-04T00:00:13.580Z,20.87
2017-02-04T00:00:54.216Z,20.87
2017-02-04T00:01:34.903Z,20.83
2017-02-04T00:02:15.702Z,20.84
2017-02-04T00:02:56.376Z,20.89
2017-02-04T00:03:37.040Z,20.8
2017-02-04T00:04:17.688Z,20.8
2017-02-04T00:04:58.404Z,20.81
2017-02-04T00:05:39.080Z,20.87
2017-02-04T00:06:19.789Z,20.81
2017-02-04T00:07:00.550Z,20.83
2017-02-04T00:07:41.273Z,20.84
2017-02-04T00:08:21.969Z,20.84
2017-02-04T00:09:02.694Z,20.87
2017-02-04T00:09:43.376Z,20.84
2017-02-04T00:10:24.118Z,20.81
2017-02-04T00:11:04.791Z,20.84
2017-02-04T00:11:45.461Z,20.84
2017-02-04T00:12:26.118Z,20.89
2017-02-04T00:13:06.794Z,20.81
2017-02-04T00:13:47.507Z,20.76
2017-02-04T00:14:28.212Z,20.87
2017-02-04T00:15:08.906Z,20.79
2017-02-04T00:15:49.559Z,20.79
2017-02-04T00:16:30.245Z,20.76
2017-02-04T00:17:10.909Z,20.83
2017-02-04T00:17:51.572Z,20.84
2017-02-04T00:18:32.303Z,20.84
2017-02-04T00:19:13.039Z,20.83
2017-02-04T00:19:53.867Z,20.89
2017-02-04T00:20:34.518Z,20.86
2017-02-04T00:21:16.019Z,20.79
2017-02-04T00:21:56.751Z,20.79
2017-02-04T00:22:37.414Z,20.89
2017-02-04T00:23:18.121Z,20.91
2017-02-04T00:23:58.810Z,20.86
2017-02-04T00:24:39.498Z,20.89
2017-02-04T00:25:20.139Z,20.86
2017-02-04T00:26:00.855Z,20.86
2017-02-04T00:26:41.596Z,20.9
2017-02-04T00:27:22.253Z,20.86
2017-02-04T00:28:02.906Z,20.86
2017-02-04T00:28:43.640Z,20.87
2017-02-04T00:29:24.289Z,20.89
2017-02-04T00:30:04.945Z,20.83
2017-02-04T00:30:45.595Z,20.83
2017-02-04T00:31:26.244Z,20.89
2017-02-04T00:32:06.900Z,20.84
2017-02-04T00:32:47.575Z,20.87
2017-02-04T00:33:28.306Z,20.86
2017-02-04T00:34:08.964Z,20.93
2017-02-04T00:34:49.615Z,20.9
2017-02-04T00:35:30.314Z,20.83
2017-02-04T00:36:11.093Z,20.9
2017-02-04T00:36:51.765Z,20.84
2017-02-04T00:37:32.410Z,20.81
2017-02-04T00:38:13.123Z,20.84
2017-02-04T00:38:53.769Z,20.87
2017-02-04T00:39:34.519Z,20.87
2017-02-04T00:40:15.222Z,20.87
2017-02-04T00:40:55.875Z,20.79
2017-02-04T00:41:36.523Z,20.8
2017-02-04T00:42:17.175Z,20.83
2017-02-04T00:42:57.895Z,20.84
2017-02-04T00:43:38.551Z,20.81
2017-02-04T00:44:19.243Z,20.79
2017-02-04T00:44:59.972Z,20.79
2017-02-04T00:45:40.700Z,20.84
2017-02-04T00:46:21.350Z,20.8
2017-02-04T00:47:02.002Z,20.81
2017-02-04T00:47:42.667Z,20.79
2017-02-04T00:48:23.319Z,20.77
2017-02-04T00:49:03.969Z,20.83
2017-02-04T00:49:44.661Z,20.74
2017-02-04T00:50:25.344Z,20.79
2017-02-04T00:51:06.017Z,20.84
2017-02-04T00:51:46.712Z,20.74
2017-02-04T00:52:27.950Z,20.79
2017-02-04T00:53:08.663Z,20.76
2017-02-04T00:53:49.336Z,20.79
2017-02-04T00:54:30.000Z,20.87
2017-02-04T00:55:10.712Z,20.74
2017-02-04T00:55:51.432Z,20.83
2017-02-04T00:56:32.084Z,20.76
2017-02-04T00:57:12.905Z,20.77
2017-02-04T00:57:53.563Z,20.79
2017-02-04T00:58:34.299Z,20.79
2017-02-04T00:59:14.978Z,20.83
2017-02-04T00:59:55.623Z,20.77
2017-02-04T01:00:36.312Z,20.74
2017-02-04T01:01:17.085Z,20.79
2017-02-04T01:01:57.731Z,20.71
2017-02-04T01:02:38.399Z,20.81
2017-02-04T01:03:19.103Z,20.72
2017-02-04T01:03:59.752Z,20.79
2017-02-04T01:04:40.472Z,20.79
2017-02-04T01:05:21.172Z,20.81
2017-02-04T01:06:01.905Z,20.79
2017-02-04T01:06:42.587Z,20.8
2017-02-04T01:07:23.255Z,20.72
2017-02-04T01:08:03.921Z,20.77
2017-02-04T01:08:44.627Z,20.79
2017-02-04T01:09:25.318Z,20.76
2017-02-04T01:10:05.966Z,20.8
2017-02-04T01:10:46.738Z,20.86
2017-02-04T01:11:27.388Z,20.77
2017-02-04T01:12:08.043Z,20.72
2017-02-04T01:12:48.703Z,20.77
2017-02-04T01:13:29.371Z,20.68
2017-02-04T01:14:10.079Z,20.72
2017-02-04T01:14:50.732Z,20.77
2017-02-04T01:15:31.433Z,20.74
2017-02-04T01:16:12.149Z,20.74
2017-02-04T01:16:52.866Z,20.72
2017-02-04T01:17:33.535Z,20.72
2017-02-04T01:18:14.253Z,20.68
2017-02-04T01:18:54.918Z,20.69
2017-02-04T01:19:36.217Z,20.69
2017-02-04T01:20:16.856Z,20.76
2017-02-04T01:20:57.529Z,20.69
2017-02-04T01:21:38.242Z,20.74
2017-02-04T01:22:18.917Z,20.74
2017-02-04T01:22:59.576Z,20.68
2017-02-04T01:23:40.270Z,20.69
2017-02-04T01:24:20.927Z,20.79
2017-02-04T01:25:01.684Z,20.71
2017-02-04T01:25:42.337Z,20.77
2017-02-04T01:26:23.041Z,20.77
2017-02-04T01:27:03.715Z,20.74
2017-02-04T01:27:44.376Z,20.74
2017-02-04T01:28:25.031Z,20.8
2017-02-04T01:29:05.686Z,20.76
2017-02-04T01:29:46.338Z,20.76
2017-02-04T01:30:27.015Z,20.74
2017-02-04T01:31:07.694Z,20.76
2017-02-04T01:31:48.416Z,20.76
2017-02-04T01:32:29.258Z,20.76
2017-02-04T01:33:09.983Z,20.77
2017-02-04T01:33:50.670Z,20.77
2017-02-04T01:34:31.306Z,20.74
2017-02-04T01:35:12.043Z,20.77
2017-02-04T01:35:52.825Z,20.74
2017-02-04T01:36:33.475Z,20.76
2017-02-04T01:37:14.125Z,20.74
2017-02-04T01:37:54.875Z,20.74
2017-02-04T01:38:35.548Z,20.72
2017-02-04T01:39:16.218Z,20.74
2017-02-04T01:39:56.916Z,20.74
2017-02-04T01:40:37.599Z,20.74
2017-02-04T01:41:18.254Z,20.72
2017-02-04T01:41:58.949Z,20.79
2017-02-04T01:42:39.651Z,20.74
2017-02-04T01:43:20.372Z,20.71
2017-02-04T01:44:01.022Z,20.77
2017-02-04T01:44:41.749Z,20.77
2017-02-04T01:45:22.408Z,20.72
2017-02-04T01:46:03.061Z,20.71
2017-02-04T01:46:43.833Z,20.69
2017-02-04T01:47:24.513Z,20.77
2017-02-04T01:48:05.159Z,20.72
2017-02-04T01:48:45.841Z,20.72
2017-02-04T01:49:26.512Z,20.71
2017-02-04T01:50:07.167Z,20.68
2017-02-04T01:50:47.815Z,20.79
2017-02-04T01:51:28.462Z,20.68
2017-02-04T01:52:09.191Z,20.68
2017-02-04T01:52:49.838Z,20.79
2017-02-04T01:53:30.522Z,20.72
2017-02-04T01:54:11.189Z,20.72
2017-02-04T01:54:51.839Z,20.79
2017-02-04T01:55:32.511Z,20.68
2017-02-04T01:56:13.249Z,20.72
2017-02-04T01:56:54.011Z,20.79
2017-02-04T01:57:34.663Z,20.77
2017-02-04T01:58:15.306Z,20.77
2017-02-04T01:58:55.964Z,20.72
2017-02-04T01:59:36.673Z,20.72
2017-02-04T02:00:17.270Z,20.68
2017-02-04T02:00:57.939Z,20.74
2017-02-04T02:01:38.592Z,20.8
2017-02-04T02:02:19.245Z,20.76
2017-02-04T02:02:59.930Z,20.71
2017-02-04T02:03:40.691Z,20.72
2017-02-04T02:04:21.331Z,20.69
2017-02-04T02:05:02.000Z,20.72
2017-02-04T02:05:42.661Z,20.66
2017-02-04T02:06:23.315Z,20.66
2017-02-04T02:07:03.971Z,20.69
2017-02-04T02:07:44.698Z,20.71
2017-02-04T02:08:25.437Z,20.66
2017-02-04T02:09:06.084Z,20.65
2017-02-04T02:09:46.801Z,20.76
2017-02-04T02:10:27.531Z,20.74
2017-02-04T02:11:08.260Z,20.72
2017-02-04T02:11:48.925Z,20.8
2017-02-04T02:12:29.578Z,20.72
2017-02-04T02:13:10.271Z,20.72
2017-02-04T02:13:50.934Z,20.71
2017-02-04T02:14:31.582Z,20.74
2017-02-04T02:15:12.252Z,20.68
2017-02-04T02:15:52.923Z,20.69
2017-02-04T02:16:33.581Z,20.76
2017-02-04T02:17:14.233Z,20.72
2017-02-04T02:17:54.882Z,20.68
2017-02-04T02:18:35.567Z,20.71
2017-02-04T02:19:16.223Z,20.66
2017-02-04T02:19:56.993Z,20.71
2017-02-04T02:20:37.653Z,20.71
2017-02-04T02:21:18.305Z,20.68
2017-02-04T02:21:58.996Z,20.71
2017-02-04T02:22:39.638Z,20.69
2017-02-04T02:23:20.381Z,20.69
2017-02-04T02:24:01.153Z,20.71
2017-02-04T02:24:41.806Z,20.71
2017-02-04T02:25:22.459Z,20.66
2017-02-04T02:26:03.166Z,20.69
2017-02-04T02:26:43.926Z,20.72
2017-02-04T02:27:24.660Z,20.77
2017-02-04T02:28:05.315Z,20.76
2017-02-04T02:28:45.999Z,20.72
2017-02-04T02:29:27.706Z,20.68
2017-02-04T02:30:08.360Z,20.83
2017-02-04T02:30:49.063Z,20.74
2017-02-04T02:31:29.785Z,20.69
2017-02-04T02:32:10.447Z,20.68
2017-02-04T02:32:51.122Z,20.68
2017-02-04T02:33:31.829Z,20.68
2017-02-04T02:34:12.470Z,20.69
2017-02-04T02:34:53.132Z,20.71
2017-02-04T02:35:33.857Z,20.69
2017-02-04T02:36:14.569Z,20.71
2017-02-04T02:36:55.248Z,20.69
2017-02-04T02:37:35.905Z,20.69
2017-02-04T02:38:16.604Z,20.74
2017-02-04T02:38:57.312Z,20.68
2017-02-04T02:39:37.987Z,20.8
2017-02-04T02:40:18.657Z,20.71
2017-02-04T02:40:59.391Z,20.71
2017-02-04T02:41:40.061Z,20.65
2017-02-04T02:42:20.718Z,20.71
2017-02-04T02:43:01.481Z,20.71
2017-02-04T02:43:42.151Z,20.65
2017-02-04T02:44:22.792Z,20.8
2017-02-04T02:45:03.466Z,20.76
2017-02-04T02:45:44.124Z,20.76
2017-02-04T02:46:24.792Z,20.71
2017-02-04T02:47:05.473Z,20.68
2017-02-04T02:47:46.171Z,20.79
2017-02-04T02:48:26.970Z,20.62
2017-02-04T02:49:07.748Z,20.76
2017-02-04T02:49:48.303Z,20.66
2017-02-04T02:50:28.981Z,20.71
2017-02-04T02:51:09.640Z,20.69
2017-02-04T02:51:50.302Z,20.66
2017-02-04T02:52:30.947Z,20.68
2017-02-04T02:53:11.606Z,20.66
2017-02-04T02:53:52.264Z,20.71
2017-02-04T02:54:32.950Z,20.68
2017-02-04T02:55:13.638Z,20.71
2017-02-04T02:55:54.298Z,20.71
2017-02-04T02:56:34.952Z,20.56
2017-02-04T02:57:15.604Z,20.58
2017-02-04T02:57:56.257Z,20.62
2017-02-04T02:58:36.915Z,20.59
2017-02-04T02:59:17.621Z,20.58
2017-02-04T02:59:58.339Z,20.64
2017-02-04T03:00:39.058Z,20.64
2017-02-04T03:01:19.681Z,20.56
2017-02-04T03:02:00.351Z,20.61
2017-02-04T03:02:41.010Z,20.65
2017-02-04T03:03:21.760Z,20.54
2017-02-04T03:04:02.420Z,20.64
2017-02-04T03:04:43.149Z,20.59
2017-02-04T03:05:23.855Z,20.58
2017-02-04T03:06:04.505Z,20.66
2017-02-04T03:06:46.163Z,20.66
2017-02-04T03:07:26.814Z,20.66
2017-02-04T03:08:07.562Z,20.65
2017-02-04T03:08:48.242Z,20.68
2017-02-04T03:09:28.947Z,20.69
2017-02-04T03:10:09.655Z,20.71
2017-02-04T03:10:50.304Z,20.76
2017-02-04T03:11:30.952Z,20.68
2017-02-04T03:12:11.617Z,20.69
2017-02-04T03:12:52.384Z,20.72
2017-02-04T03:13:33.029Z,20.69
2017-02-04T03:14:13.673Z,20.71
2017-02-04T03:14:54.385Z,20.69
2017-02-04T03:15:35.039Z,20.64
2017-02-04T03:16:15.770Z,20.58
2017-02-04T03:16:56.420Z,20.58
2017-02-04T03:17:37.068Z,20.53
2017-02-04T03:18:17.779Z,20.59
2017-02-04T03:18:58.430Z,20.59
2017-02-04T03:19:39.075Z,20.64
2017-02-04T03:20:19.734Z,20.62
2017-02-04T03:21:00.426Z,20.54
2017-02-04T03:21:41.062Z,20.62
2017-02-04T03:22:21.715Z,20.59
2017-02-04T03:23:02.423Z,20.59
2017-02-04T03:23:43.128Z,20.62
2017-02-04T03:24:23.825Z,20.61
2017-02-04T03:25:04.484Z,20.61
2017-02-04T03:25:45.139Z,20.62
2017-02-04T03:26:26.552Z,20.65
2017-02-04T03:27:07.300Z,20.62
2017-02-04T03:27:47.975Z,20.58
2017-02-04T03:28:28.673Z,20.65
2017-02-04T03:29:09.323Z,20.62
2017-02-04T03:29:49.979Z,20.61
2017-02-04T03:30:30.731Z,20.59
2017-02-04T03:31:11.484Z,20.58
2017-02-04T03:31:52.137Z,20.58
2017-02-04T03:32:32.792Z,20.59
2017-02-04T03:33:13.443Z,20.54
2017-02-04T03:33:54.137Z,20.62
2017-02-04T03:34:34.781Z,20.53
2017-02-04T03:35:15.503Z,20.51
2017-02-04T03:35:56.157Z,20.58
2017-02-04T03:36:36.863Z,20.53
2017-02-04T03:37:17.546Z,20.54
2017-02-04T03:37:58.215Z,20.61
2017-02-04T03:38:38.943Z,20.53
2017-02-04T03:39:19.643Z,20.61
2017-02-04T03:40:00.293Z,20.56
2017-02-04T03:40:40.946Z,20.54
2017-02-04T03:41:21.608Z,20.65
2017-02-04T03:42:02.251Z,20.59
2017-02-04T03:42:42.892Z,20.62
2017-02-04T03:43:23.632Z,20.5
2017-02-04T03:44:04.303Z,20.59
2017-02-04T03:44:44.955Z,20.56
2017-02-04T03:45:25.606Z,20.64
2017-02-04T03:46:06.289Z,20.59
2017-02-04T03:46:47.042Z,20.65
2017-02-04T03:47:27.672Z,20.58
2017-02-04T03:48:08.326Z,20.64
2017-02-04T03:48:48.978Z,20.54
2017-02-04T03:49:29.712Z,20.54
2017-02-04T03:50:10.373Z,20.54
2017-02-04T03:50:51.019Z,20.54
2017-02-04T03:51:31.722Z,20.59
2017-02-04T03:52:12.456Z,20.56
2017-02-04T03:52:53.105Z,20.59
2017-02-04T03:53:33.782Z,20.56
2017-02-04T03:54:14.490Z,20.61
2017-02-04T03:54:56.038Z,20.59
2017-02-04T03:55:36.683Z,20.61
2017-02-04T03:56:17.441Z,20.61
2017-02-04T03:56:58.237Z,20.5
2017-02-04T03:57:38.884Z,20.53
2017-02-04T03:58:19.583Z,20.61
2017-02-04T03:59:00.323Z,20.53
2017-02-04T03:59:40.987Z,20.54
2017-02-04T04:00:21.640Z,20.58
2017-02-04T04:01:02.340Z,20.51
2017-02-04T04:01:43.650Z,20.51
2017-02-04T04:02:24.350Z,20.56
2017-02-04T04:03:05.121Z,20.56
2017-02-04T04:03:46.529Z,20.53
2017-02-04T04:04:27.230Z,20.56
2017-02-04T04:05:07.892Z,20.56
2017-02-04T04:05:48.561Z,20.53
2017-02-04T04:06:29.300Z,20.58
2017-02-04T04:07:09.950Z,20.54
2017-02-04T04:07:51.588Z,20.49
2017-02-04T04:08:32.198Z,20.58
2017-02-04T04:09:12.851Z,20.42
2017-02-04T04:09:53.565Z,20.58
2017-02-04T04:10:34.237Z,20.53
2017-02-04T04:11:14.892Z,20.56
2017-02-04T04:11:55.622Z,20.5
2017-02-04T04:12:36.277Z,20.56
2017-02-04T04:13:16.995Z,20.59
2017-02-04T04:13:57.648Z,20.53
2017-02-04T04:14:38.313Z,20.53
2017-02-04T04:15:19.022Z,20.58
2017-02-04T04:15:59.671Z,20.56
2017-02-04T04:16:40.329Z,20.59
2017-02-04T04:17:20.997Z,20.68
2017-02-04T04:18:01.651Z,20.56
2017-02-04T04:18:42.342Z,20.54
2017-02-04T04:19:23.039Z,20.56
2017-02-04T04:20:03.758Z,20.56
2017-02-04T04:20:44.500Z,20.54
2017-02-04T04:21:25.177Z,20.61
2017-02-04T04:22:05.831Z,20.51
2017-02-04T04:22:46.484Z,20.53
2017-02-04T04:23:27.212Z,20.51
2017-02-04T04:24:07.930Z,20.49
2017-02-04T04:24:48.545Z,20.54
2017-02-04T04:25:29.208Z,20.62
2017-02-04T04:26:09.856Z,20.58
2017-02-04T04:26:50.504Z,20.54
2017-02-04T04:27:31.278Z,20.54
2017-02-04T04:28:11.933Z,20.54
2017-02-04T04:28:52.584Z,20.58
2017-02-04T04:29:33.349Z,20.58
2017-02-04T04:30:14.051Z,20.47
2017-02-04T04:30:54.760Z,20.53
2017-02-04T04:31:35.408Z,20.61
2017-02-04T04:32:16.061Z,20.51
2017-02-04T04:32:56.807Z,20.51
2017-02-04T04:33:37.468Z,20.58
2017-02-04T04:34:18.161Z,20.61
2017-02-04T04:34:58.901Z,20.51
2017-02-04T04:35:39.554Z,20.58
2017-02-04T04:36:20.208Z,20.62
2017-02-04T04:37:00.888Z,20.59
2017-02-04T04:37:41.548Z,20.61
2017-02-04T04:38:22.193Z,20.5
2017-02-04T04:39:02.857Z,20.69
2017-02-04T04:39:43.661Z,20.51
2017-02-04T04:40:24.345Z,20.53
2017-02-04T04:41:05.038Z,20.5
2017-02-04T04:41:45.732Z,20.61
2017-02-04T04:42:26.483Z,20.54
2017-02-04T04:43:07.146Z,20.64
2017-02-04T04:43:47.832Z,20.49
2017-02-04T04:44:28.481Z,20.58
2017-02-04T04:45:09.146Z,20.53
2017-02-04T04:45:49.836Z,20.54
2017-02-04T04:46:30.524Z,20.62
2017-02-04T04:47:11.199Z,20.53
2017-02-04T04:47:51.848Z,20.56
2017-02-04T04:48:32.502Z,20.56
2017-02-04T04:49:13.182Z,20.61
2017-02-04T04:49:53.853Z,20.56
2017-02-04T04:50:34.482Z,20.5
2017-02-04T04:51:15.167Z,20.58
2017-02-04T04:51:55.820Z,20.64
2017-02-04T04:52:36.464Z,20.5
2017-02-04T04:53:17.130Z,20.61
2017-02-04T04:53:57.808Z,20.61
2017-02-04T04:54:38.473Z,20.58
2017-02-04T04:55:19.161Z,20.62
2017-02-04T04:55:59.879Z,20.58
2017-02-04T04:56:40.534Z,20.51
2017-02-04T04:57:21.223Z,20.53
2017-02-04T04:58:01.938Z,20.58
2017-02-04T04:58:42.627Z,20.56
2017-02-04T04:59:23.287Z,20.56
2017-02-04T05:00:03.980Z,20.54
2017-02-04T05:00:44.659Z,20.5
2017-02-04T05:01:25.323Z,20.51
2017-02-04T05:02:05.976Z,20.5
2017-02-04T05:02:46.687Z,20.56
2017-02-04T05:03:27.341Z,20.58
2017-02-04T05:04:08.009Z,20.58
2017-02-04T05:04:48.673Z,20.59
2017-02-04T05:05:29.425Z,20.59
2017-02-04T05:06:10.097Z,20.58
2017-02-04T05:06:50.759Z,20.51
2017-02-04T05:07:31.410Z,20.58
2017-02-04T05:08:12.111Z,20.56
2017-02-04T05:08:52.759Z,20.54
2017-02-04T05:09:33.419Z,20.5
2017-02-04T05:10:14.078Z,20.56
2017-02-04T05:10:54.746Z,20.49
2017-02-04T05:11:35.398Z,20.41
2017-02-04T05:12:16.052Z,20.41
2017-02-04T05:12:56.706Z,20.49
2017-02-04T05:13:37.357Z,20.51
2017-02-04T05:14:18.052Z,20.5
2017-02-04T05:14:58.702Z,20.43
2017-02-04T05:15:39.370Z,20.47
2017-02-04T05:16:20.023Z,20.5
2017-02-04T05:17:00.671Z,20.53
2017-02-04T05:17:41.332Z,20.53
2017-02-04T05:18:22.008Z,20.38
2017-02-04T05:19:02.663Z,20.43
2017-02-04T05:19:43.389Z,20.5
2017-02-04T05:20:24.084Z,20.54
2017-02-04T05:21:04.788Z,20.53
2017-02-04T05:21:45.453Z,20.5
2017-02-04T05:22:26.112Z,20.41
2017-02-04T05:23:06.756Z,20.42
2017-02-04T05:23:47.408Z,20.58
2017-02-04T05:24:28.165Z,20.42
2017-02-04T05:25:08.835Z,20.59
2017-02-04T05:25:49.545Z,20.51
2017-02-04T05:26:30.257Z,20.51
2017-02-04T05:27:10.910Z,20.51
2017-02-04T05:27:51.605Z,20.51
2017-02-04T05:28:32.262Z,20.53
2017-02-04T05:29:13.664Z,20.53
2017-02-04T05:29:54.310Z,20.5
2017-02-04T05:30:34.982Z,20.5
2017-02-04T05:31:15.758Z,20.51
2017-02-04T05:31:56.472Z,20.51
2017-02-04T05:32:37.127Z,20.42
2017-02-04T05:33:17.784Z,20.41
2017-02-04T05:33:58.514Z,20.43
2017-02-04T05:34:39.247Z,20.51
2017-02-04T05:35:19.897Z,20.5
2017-02-04T05:36:00.604Z,20.5
2017-02-04T05:36:41.371Z,20.5
2017-02-04T05:37:22.078Z,20.61
2017-02-04T05:38:02.776Z,20.56
2017-02-04T05:38:43.443Z,20.59
2017-02-04T05:39:24.103Z,20.5
2017-02-04T05:40:04.774Z,20.56
2017-02-04T05:40:45.512Z,20.54
2017-02-04T05:41:26.162Z,20.43
2017-02-04T05:42:06.849Z,20.51
2017-02-04T05:42:47.540Z,20.49
2017-02-04T05:43:28.265Z,20.59
2017-02-04T05:44:09.004Z,20.43
2017-02-04T05:44:49.653Z,20.5
2017-02-04T05:45:30.379Z,20.51
2017-02-04T05:46:11.147Z,20.53
2017-02-04T05:46:52.700Z,20.53
2017-02-04T05:47:33.357Z,20.51
2017-02-04T05:48:14.028Z,20.54
2017-02-04T05:48:54.780Z,20.51
2017-02-04T05:49:35.432Z,20.49
2017-02-04T05:50:16.148Z,20.51
2017-02-04T05:50:56.842Z,20.53
2017-02-04T05:51:37.537Z,20.51
2017-02-04T05:52:18.194Z,20.43
2017-02-04T05:52:58.919Z,20.43
2017-02-04T05:53:39.646Z,20.53
2017-02-04T05:54:20.385Z,20.54
2017-02-04T05:55:00.963Z,20.42
2017-02-04T05:55:41.660Z,20.42
2017-02-04T05:56:22.348Z,20.47
2017-02-04T05:57:03.020Z,20.47
2017-02-04T05:57:43.703Z,20.42
2017-02-04T05:58:24.435Z,20.49
2017-02-04T05:59:05.199Z,20.51
2017-02-04T05:59:45.795Z,20.56
2017-02-04T06:00:26.485Z,20.54
2017-02-04T06:01:07.157Z,20.43
2017-02-04T06:01:47.800Z,20.41
2017-02-04T06:02:28.511Z,20.41
2017-02-04T06:03:09.188Z,20.46
2017-02-04T06:03:49.859Z,20.46
2017-02-04T06:04:30.591Z,20.49
2017-02-04T06:05:11.261Z,20.42
2017-02-04T06:05:52.016Z,20.49
2017-02-04T06:06:32.674Z,20.41
2017-02-04T06:07:13.335Z,20.43
2017-02-04T06:07:54.029Z,20.54
2017-02-04T06:08:34.684Z,20.46
2017-02-04T06:09:15.451Z,20.49
2017-02-04T06:09:56.121Z,20.49
2017-02-04T06:10:36.832Z,20.43
2017-02-04T06:11:17.484Z,20.47
2017-02-04T06:11:58.138Z,20.41
2017-02-04T06:12:38.836Z,20.42
2017-02-04T06:13:19.486Z,20.5
2017-02-04T06:14:00.220Z,20.41
2017-02-04T06:14:40.894Z,20.47
2017-02-04T06:15:21.632Z,20.49
2017-02-04T06:16:02.279Z,20.42
2017-02-04T06:16:42.964Z,20.42
2017-02-04T06:17:23.655Z,20.42
2017-02-04T06:18:04.323Z,20.46
2017-02-04T06:18:45.125Z,20.46
2017-02-04T06:19:25.771Z,20.38
2017-02-04T06:20:06.474Z,20.41
2017-02-04T06:20:47.126Z,20.56
2017-02-04T06:21:27.788Z,20.51
2017-02-04T06:22:08.445Z,20.49
2017-02-04T06:22:49.122Z,20.49
2017-02-04T06:23:29.855Z,20.38
2017-02-04T06:24:10.524Z,20.42
2017-02-04T06:24:51.178Z,20.53
2017-02-04T06:25:31.862Z,20.42
2017-02-04T06:26:12.643Z,20.41
2017-02-04T06:26:53.328Z,20.56
2017-02-04T06:27:34.017Z,20.49
2017-02-04T06:28:14.656Z,20.47
2017-02-04T06:28:55.364Z,20.54
2017-02-04T06:29:36.044Z,20.56
2017-02-04T06:30:16.692Z,20.43
2017-02-04T06:30:57.348Z,20.42
2017-02-04T06:31:38.093Z,20.46
2017-02-04T06:32:18.737Z,20.46
2017-02-04T06:32:59.460Z,20.43
2017-02-04T06:33:40.113Z,20.47
2017-02-04T06:34:20.778Z,20.51
2017-02-04T06:35:01.441Z,20.46
2017-02-04T06:35:42.159Z,20.43
2017-02-04T06:36:22.915Z,20.43
2017-02-04T06:37:03.572Z,20.43
2017-02-04T06:37:44.236Z,20.41
2017-02-04T06:38:24.920Z,20.42
2017-02-04T06:39:05.570Z,20.43
2017-02-04T06:39:46.259Z,20.43
2017-02-04T06:40:27.003Z,20.42
2017-02-04T06:41:07.738Z,20.47
2017-02-04T06:41:48.401Z,20.43
2017-02-04T06:42:29.061Z,20.41
2017-02-04T06:43:09.789Z,20.41
2017-02-04T06:43:50.493Z,20.41
2017-02-04T06:44:31.184Z,20.51
2017-02-04T06:45:11.831Z,20.42
2017-02-04T06:45:52.535Z,20.43
2017-02-04T06:46:33.188Z,20.53
2017-02-04T06:47:13.852Z,20.53
2017-02-04T06:47:54.491Z,20.53
2017-02-04T06:48:35.145Z,20.51
2017-02-04T06:49:15.822Z,20.41
2017-02-04T06:49:56.526Z,20.51
2017-02-04T06:50:37.228Z,20.5
2017-02-04T06:51:17.862Z,20.51
2017-02-04T06:51:58.520Z,20.47
2017-02-04T06:52:39.227Z,20.47
2017-02-04T06:53:19.878Z,20.41
2017-02-04T06:54:00.610Z,20.43
2017-02-04T06:54:41.285Z,20.51
2017-02-04T06:55:21.995Z,20.51
2017-02-04T06:56:02.668Z,20.42
2017-02-04T06:56:43.335Z,20.42
2017-02-04T06:57:23.988Z,20.5
2017-02-04T06:58:04.656Z,20.56
2017-02-04T06:58:45.351Z,20.43
2017-02-04T06:59:26.146Z,20.42
2017-02-04T07:00:06.817Z,20.42
2017-02-04T07:00:47.465Z,20.51
2017-02-04T07:01:28.124Z,20.46
2017-02-04T07:02:08.839Z,20.42
2017-02-04T07:02:49.501Z,20.46
2017-02-04T07:03:30.144Z,20.41
2017-02-04T07:04:10.831Z,20.43
2017-02-04T07:04:51.522Z,20.54
2017-02-04T07:05:32.169Z,20.58
2017-02-04T07:06:12.831Z,20.51
2017-02-04T07:06:53.547Z,20.42
2017-02-04T07:07:34.215Z,20.43
2017-02-04T07:08:14.910Z,20.43
2017-02-04T07:08:55.563Z,20.39
2017-02-04T07:09:36.219Z,20.46
2017-02-04T07:10:16.965Z,20.43
2017-02-04T07:10:57.619Z,20.47
2017-02-04T07:11:38.326Z,20.47
2017-02-04T07:12:19.009Z,20.42
2017-02-04T07:12:59.661Z,20.43
2017-02-04T07:13:40.305Z,20.41
2017-02-04T07:14:20.966Z,20.46
2017-02-04T07:15:01.615Z,20.47
2017-02-04T07:15:42.270Z,20.41
2017-02-04T07:16:22.931Z,20.43
2017-02-04T07:17:03.586Z,20.43
2017-02-04T07:17:44.339Z,20.46
2017-02-04T07:18:25.024Z,20.43
2017-02-04T07:19:05.715Z,20.49
2017-02-04T07:19:46.405Z,20.41
2017-02-04T07:20:27.166Z,20.53
2017-02-04T07:21:07.832Z,20.54
2017-02-04T07:21:48.555Z,20.42
2017-02-04T07:22:29.346Z,20.47
2017-02-04T07:23:10.007Z,20.43
2017-02-04T07:23:50.684Z,20.46
2017-02-04T07:24:31.401Z,20.39
2017-02-04T07:25:12.053Z,20.56
2017-02-04T07:25:52.811Z,20.56
2017-02-04T07:26:33.493Z,20.47
2017-02-04T07:27:14.176Z,20.46
2017-02-04T07:27:54.819Z,20.39
2017-02-04T07:28:35.470Z,20.46
2017-02-04T07:29:16.133Z,20.42
2017-02-04T07:29:56.850Z,20.47
2017-02-04T07:30:37.499Z,20.39
2017-02-04T07:31:18.170Z,20.38
2017-02-04T07:31:58.868Z,20.41
2017-02-04T07:32:39.517Z,20.42
2017-02-04T07:33:20.170Z,20.35
2017-02-04T07:34:00.873Z,20.43
2017-02-04T07:34:41.626Z,20.43
2017-02-04T07:35:22.395Z,20.39
2017-02-04T07:36:02.960Z,20.43
2017-02-04T07:36:43.624Z,20.43
2017-02-04T07:37:24.275Z,20.39
2017-02-04T07:38:04.924Z,20.41
2017-02-04T07:38:45.630Z,20.41
2017-02-04T07:39:26.280Z,20.41
2017-02-04T07:40:06.946Z,20.35
2017-02-04T07:40:47.665Z,20.46
2017-02-04T07:41:28.323Z,20.41
2017-02-04T07:42:08.974Z,20.46
2017-02-04T07:42:49.648Z,20.42
2017-02-04T07:43:30.373Z,20.41
2017-02-04T07:44:11.113Z,20.41
2017-02-04T07:44:51.791Z,20.46
2017-02-04T07:45:32.441Z,20.39
2017-02-04T07:46:13.122Z,20.43
2017-02-04T07:46:53.772Z,20.49
2017-02-04T07:47:34.431Z,20.39
2017-02-04T07:48:15.234Z,20.41
2017-02-04T07:48:55.925Z,20.34
2017-02-04T07:49:36.589Z,20.46
2017-02-04T07:50:17.256Z,20.47
2017-02-04T07:50:57.930Z,20.41
2017-02-04T07:51:38.608Z,20.42
2017-02-04T07:52:19.255Z,20.42
2017-02-04T07:52:59.908Z,20.43
2017-02-04T07:53:40.706Z,20.46
2017-02-04T07:54:21.399Z,20.42
2017-02-04T07:55:02.068Z,20.41
2017-02-04T07:55:42.746Z,20.41
2017-02-04T07:56:23.396Z,20.38
2017-02-04T07:57:04.108Z,20.47
2017-02-04T07:57:44.754Z,20.43
2017-02-04T07:58:25.479Z,20.42
2017-02-04T07:59:06.148Z,20.41
2017-02-04T07:59:46.898Z,20.42
2017-02-04T08:00:27.556Z,20.43
2017-02-04T08:01:08.207Z,20.46
2017-02-04T08:01:48.912Z,20.41
2017-02-04T08:02:29.564Z,20.38
2017-02-04T08:03:10.225Z,20.43
2017-02-04T08:03:50.940Z,20.41
2017-02-04T08:04:32.498Z,20.41
2017-02-04T08:05:13.206Z,20.46
2017-02-04T08:05:53.871Z,20.38
2017-02-04T08:06:34.610Z,20.46
2017-02-04T08:07:15.343Z,20.43
2017-02-04T08:07:55.991Z,20.42
2017-02-04T08:08:36.669Z,20.47
2017-02-04T08:09:17.402Z,20.41
2017-02-04T08:09:58.073Z,20.43
2017-02-04T08:10:38.718Z,20.42
2017-02-04T08:11:19.417Z,20.43
2017-02-04T08:12:00.150Z,20.42
2017-02-04T08:12:40.848Z,20.5
2017-02-04T08:13:21.469Z,20.43
2017-02-04T08:14:02.200Z,20.43
2017-02-04T08:14:42.965Z,20.41
2017-02-04T08:15:23.633Z,20.42
2017-02-04T08:16:04.285Z,20.46
2017-02-04T08:16:45.020Z,20.43
2017-02-04T08:17:25.776Z,20.47
2017-02-04T08:18:06.455Z,20.47
2017-02-04T08:18:47.106Z,20.43
2017-02-04T08:19:27.820Z,20.46
2017-02-04T08:20:08.493Z,20.42
2017-02-04T08:20:49.155Z,20.41
2017-02-04T08:21:29.864Z,20.39
2017-02-04T08:22:10.528Z,20.47
2017-02-04T08:22:51.180Z,20.42
2017-02-04T08:23:31.889Z,20.43
2017-02-04T08:24:12.589Z,20.47
2017-02-04T08:24:53.233Z,20.39
2017-02-04T08:25:33.898Z,20.43
2017-02-04T08:26:14.623Z,20.41
2017-02-04T08:26:55.281Z,20.47
2017-02-04T08:27:35.969Z,20.46
2017-02-04T08:28:16.765Z,20.41
2017-02-04T08:28:57.428Z,20.46
2017-02-04T08:29:38.076Z,20.42
2017-02-04T08:30:18.773Z,20.43
2017-02-04T08:30:59.466Z,20.43
2017-02-04T08:31:40.176Z,20.41
2017-02-04T08:32:20.847Z,20.46
2017-02-04T08:33:01.508Z,20.43
2017-02-04T08:33:42.201Z,20.42
2017-02-04T08:34:22.847Z,20.42
2017-02-04T08:35:03.528Z,20.47
2017-02-04T08:35:44.196Z,20.41
2017-02-04T08:36:24.843Z,20.58
2017-02-04T08:37:05.515Z,20.49
2017-02-04T08:37:46.185Z,20.43
2017-02-04T08:38:26.894Z,20.46
2017-02-04T08:39:07.567Z,20.43
2017-02-04T08:39:48.302Z,20.49
2017-02-04T08:40:28.979Z,20.42
2017-02-04T08:41:09.635Z,20.42
2017-02-04T08:41:50.290Z,20.41
2017-02-04T08:42:30.943Z,20.49
2017-02-04T08:43:11.600Z,20.47
2017-02-04T08:43:52.251Z,20.46
2017-02-04T08:44:32.922Z,20.42